< < Back
Terminal Aerodrome Forecast


Current Version              Previous Versions:   1  2  3  4  5  6  7  8  9  

Terminal Aerodrome Forecast

933
FTUS44 KMOB 040526
TAFMOB
TAF
KMOB 040526Z 0406/0506 23003KT P6SM SCT250
     FM040900 00000KT 4SM BR BKN250
     FM041500 34002KT P6SM SCT250
     FM042000 22004KT P6SM VCTS SCT040CB SCT250=



Latest METAR

235
SAUS80 KWBC 050500
MTRMOB
METAR KMOB 050456Z AUTO 00000KT 10SM CLR 24/24 A3000 RMK AO2 SLP156
T02440239


USA.gov is the U.S. government's official web portal to all federal, state and local government web resources and services.